createdAt,value
2022-08-29T00:00:21.114Z,101362.16
2022-08-29T00:02:49.542Z,101355.66
2022-08-29T00:05:17.685Z,101354.75
2022-08-29T00:07:44.239Z,101357.47
2022-08-29T00:10:11.694Z,101357.09
2022-08-29T00:12:38.421Z,101358.75
2022-08-29T00:15:06.878Z,101357.34
2022-08-29T00:17:33.521Z,101345.50
2022-08-29T00:20:00.232Z,101359.00
2022-08-29T00:22:26.897Z,101335.28
2022-08-29T00:24:53.421Z,101339.06
2022-08-29T00:27:19.943Z,101376.06
2022-08-29T00:29:46.486Z,101374.88
2022-08-29T00:32:13.195Z,101361.66
2022-08-29T00:34:39.741Z,101342.59
2022-08-29T00:37:06.288Z,101382.91
2022-08-29T00:39:33.063Z,101380.47
2022-08-29T00:42:01.415Z,101363.41
2022-08-29T00:44:28.628Z,101369.03
2022-08-29T00:46:57.593Z,101375.59
2022-08-29T00:49:24.316Z,101376.44
2022-08-29T00:51:51.843Z,101356.03
2022-08-29T00:54:18.553Z,101366.56
2022-08-29T00:56:45.722Z,101372.69
2022-08-29T00:59:17.105Z,101344.75
2022-08-29T01:01:44.505Z,101366.31
2022-08-29T01:04:15.819Z,101373.31
2022-08-29T01:06:51.397Z,101370.06
2022-08-29T01:09:18.055Z,101365.97
2022-08-29T01:12:03.212Z,101330.53
2022-08-29T01:14:29.806Z,101323.47
2022-08-29T01:16:57.871Z,101364.84
2022-08-29T01:19:24.391Z,101374.53
2022-08-29T01:22:02.906Z,101338.53
2022-08-29T01:24:36.234Z,101350.75
2022-08-29T01:27:03.459Z,101355.88
2022-08-29T01:29:30.062Z,101372.25
2022-08-29T01:31:58.262Z,101376.84
2022-08-29T01:34:27.684Z,101351.66
2022-08-29T01:37:03.324Z,101382.00
2022-08-29T01:39:33.917Z,101370.94
2022-08-29T01:42:03.964Z,101371.00
2022-08-29T01:44:30.818Z,101374.53
2022-08-29T01:47:02.711Z,101379.22
2022-08-29T01:49:31.270Z,101379.59
2022-08-29T01:51:57.813Z,101344.59
2022-08-29T01:54:24.583Z,101385.09
2022-08-29T01:56:52.213Z,101384.03
2022-08-29T01:59:21.733Z,101381.59
2022-08-29T02:01:59.772Z,101393.84
2022-08-29T02:04:27.335Z,101386.41
2022-08-29T02:06:56.127Z,101401.56
2022-08-29T02:09:23.547Z,101388.16
2022-08-29T02:11:52.443Z,101389.81
2022-08-29T02:14:19.908Z,101390.47
2022-08-29T02:16:47.708Z,101372.03
2022-08-29T02:19:14.791Z,101385.28
2022-08-29T02:21:41.397Z,101331.53
2022-08-29T02:24:24.551Z,101362.09
2022-08-29T02:26:53.810Z,101393.91
2022-08-29T02:29:20.363Z,101390.09
2022-08-29T02:31:46.992Z,101385.50
2022-08-29T02:34:13.715Z,101393.97
2022-08-29T02:36:41.547Z,101386.25
2022-08-29T02:39:09.479Z,101357.28
2022-08-29T02:41:36.231Z,101370.53
2022-08-29T02:44:03.692Z,101385.63
2022-08-29T02:46:30.366Z,101361.72
2022-08-29T02:49:00.571Z,101387.16
2022-08-29T02:51:29.829Z,101397.44
2022-08-29T02:53:56.874Z,101409.19
2022-08-29T02:56:23.871Z,101390.81
2022-08-29T02:58:50.706Z,101361.59
2022-08-29T03:01:19.442Z,101399.81
2022-08-29T03:03:45.989Z,101402.19
2022-08-29T03:06:12.931Z,101403.41
2022-08-29T03:08:39.567Z,101409.34
2022-08-29T03:11:06.600Z,101359.63
2022-08-29T03:13:34.473Z,101402.44
2022-08-29T03:16:04.558Z,101387.78
2022-08-29T03:18:31.440Z,101373.50
2022-08-29T03:20:58.212Z,101403.00
2022-08-29T03:23:24.748Z,101397.19
2022-08-29T03:25:51.270Z,101415.34
2022-08-29T03:28:18.189Z,101404.22
2022-08-29T03:30:45.024Z,101402.09
2022-08-29T03:33:12.198Z,101330.59
2022-08-29T03:35:39.483Z,101356.69
2022-08-29T03:38:06.396Z,101382.06
2022-08-29T03:40:33.024Z,101403.63
2022-08-29T03:43:00.485Z,101400.53
2022-08-29T03:45:27.011Z,101365.81
2022-08-29T03:47:53.578Z,101398.69
2022-08-29T03:50:20.891Z,101387.53
2022-08-29T03:52:48.658Z,101410.84
2022-08-29T03:55:19.484Z,101414.53
2022-08-29T03:57:46.309Z,101381.38
2022-08-29T04:00:16.479Z,101405.63
2022-08-29T04:02:47.463Z,101406.31
2022-08-29T04:05:16.060Z,101405.19
2022-08-29T04:07:57.838Z,101366.69
2022-08-29T04:10:33.544Z,101396.19
2022-08-29T04:13:00.999Z,101400.41
2022-08-29T04:15:28.827Z,101405.34
2022-08-29T04:17:57.696Z,101402.97
2022-08-29T04:20:28.859Z,101399.13
2022-08-29T04:22:56.588Z,101400.69
2022-08-29T04:25:26.176Z,101408.75
2022-08-29T04:27:54.089Z,101398.56
2022-08-29T04:30:24.215Z,101404.50
2022-08-29T04:32:50.831Z,101409.16
2022-08-29T04:35:17.503Z,101411.81
2022-08-29T04:37:44.701Z,101409.03
2022-08-29T04:40:15.419Z,101413.22
2022-08-29T04:42:42.935Z,101409.16
2022-08-29T04:45:12.431Z,101407.75
2022-08-29T04:47:39.819Z,101407.34
2022-08-29T04:50:07.994Z,101410.69
2022-08-29T04:52:34.612Z,101401.53
2022-08-29T04:55:01.231Z,101417.88
2022-08-29T04:57:27.791Z,101415.50
2022-08-29T04:59:58.868Z,101409.44
2022-08-29T05:02:27.600Z,101409.31
2022-08-29T05:04:56.539Z,101384.88
2022-08-29T05:07:25.497Z,101409.41
2022-08-29T05:10:01.538Z,101405.00
2022-08-29T05:12:30.128Z,101414.72
2022-08-29T05:14:57.601Z,101425.78
2022-08-29T05:17:24.625Z,101425.09
2022-08-29T05:19:51.558Z,101425.34
2022-08-29T05:22:19.881Z,101426.69
2022-08-29T05:24:47.117Z,101420.13
2022-08-29T05:27:17.080Z,101420.59
2022-08-29T05:29:45.719Z,101422.91
2022-08-29T05:32:14.856Z,101426.47
2022-08-29T05:34:43.046Z,101432.69
2022-08-29T05:37:15.141Z,101400.41
2022-08-29T05:39:42.422Z,101433.69
2022-08-29T05:42:10.336Z,101432.06
2022-08-29T05:44:37.466Z,101436.34
2022-08-29T05:47:05.969Z,101426.63
2022-08-29T05:49:32.720Z,101419.09
2022-08-29T05:52:00.705Z,101429.59
2022-08-29T05:54:29.462Z,101427.69
2022-08-29T05:56:57.107Z,101436.09
2022-08-29T05:59:24.001Z,101434.28
2022-08-29T06:01:50.627Z,101423.38
2022-08-29T06:04:17.369Z,101438.53
2022-08-29T06:06:43.910Z,101435.78
2022-08-29T06:09:11.654Z,101434.69
2022-08-29T06:11:38.535Z,101445.13
2022-08-29T06:14:05.720Z,101447.97
2022-08-29T06:16:33.053Z,101441.22
2022-08-29T06:19:00.260Z,101425.16
2022-08-29T06:21:26.754Z,101419.63
2022-08-29T06:23:54.645Z,101439.34
2022-08-29T06:26:21.206Z,101444.13
2022-08-29T06:28:48.284Z,101430.88
2022-08-29T06:31:21.466Z,101433.13
2022-08-29T06:33:51.536Z,101430.59
2022-08-29T06:36:18.099Z,101434.81
2022-08-29T06:38:44.713Z,101445.91
2022-08-29T06:41:15.174Z,101444.81
2022-08-29T06:43:41.974Z,101445.56
2022-08-29T06:46:09.321Z,101449.53
2022-08-29T06:48:35.925Z,101450.25
2022-08-29T06:51:03.662Z,101457.25
2022-08-29T06:53:30.272Z,101454.78
2022-08-29T06:56:04.186Z,101443.09
2022-08-29T06:58:32.388Z,101451.16
2022-08-29T07:00:59.231Z,101459.94
2022-08-29T07:03:25.819Z,101461.16
2022-08-29T07:05:53.679Z,101459.97
2022-08-29T07:08:20.979Z,101458.94
2022-08-29T07:10:47.777Z,101454.91
2022-08-29T07:13:14.539Z,101446.72
2022-08-29T07:15:41.751Z,101452.22
2022-08-29T07:18:10.099Z,101464.47
2022-08-29T07:20:39.387Z,101438.44
2022-08-29T07:23:06.830Z,101468.44
2022-08-29T07:25:35.431Z,101446.47
2022-08-29T07:28:02.240Z,101445.97
2022-08-29T07:30:29.203Z,101467.28
2022-08-29T07:32:56.053Z,101464.75
2022-08-29T07:35:30.524Z,101457.00
2022-08-29T07:38:00.999Z,101470.72
2022-08-29T07:40:27.597Z,101475.94
2022-08-29T07:42:54.351Z,101467.53
2022-08-29T07:45:20.969Z,101466.03
2022-08-29T07:47:47.596Z,101454.38
2022-08-29T07:50:14.803Z,101460.75
2022-08-29T07:52:41.438Z,101463.00
2022-08-29T07:55:08.806Z,101459.94
2022-08-29T07:57:39.590Z,101454.44
2022-08-29T08:00:12.249Z,101459.94
2022-08-29T08:02:39.236Z,101467.38
2022-08-29T08:05:07.129Z,101443.75
2022-08-29T08:07:35.015Z,101474.25
2022-08-29T08:10:03.653Z,101469.25
2022-08-29T08:12:30.222Z,101446.25
2022-08-29T08:14:57.052Z,101459.75
2022-08-29T08:17:24.089Z,101471.50
2022-08-29T08:19:50.623Z,101481.50
2022-08-29T08:22:17.117Z,101484.97
2022-08-29T08:24:43.727Z,101492.91
2022-08-29T08:27:10.514Z,101485.34
2022-08-29T08:29:37.157Z,101482.09
2022-08-29T08:32:04.550Z,101471.53
2022-08-29T08:34:31.315Z,101484.44
2022-08-29T08:36:58.343Z,101489.50
2022-08-29T08:39:24.943Z,101471.63
2022-08-29T08:42:04.284Z,101449.28
2022-08-29T08:44:53.532Z,101482.28
2022-08-29T08:47:37.226Z,101484.28
2022-08-29T08:50:06.667Z,101482.25
2022-08-29T08:52:40.785Z,101461.59
2022-08-29T08:55:15.445Z,101471.25
2022-08-29T08:57:50.392Z,101457.84
2022-08-29T09:00:16.963Z,101468.44
2022-08-29T09:02:54.504Z,101477.44
2022-08-29T09:05:40.369Z,101473.44
2022-08-29T09:08:13.052Z,101466.50
2022-08-29T09:11:03.099Z,101467.81
2022-08-29T09:13:38.541Z,101459.75
2022-08-29T09:16:12.070Z,101452.47
2022-08-29T09:18:42.261Z,101456.78
2022-08-29T09:21:39.634Z,101453.84
2022-08-29T09:24:06.142Z,101423.72
2022-08-29T09:26:32.924Z,101462.03
2022-08-29T09:28:59.440Z,101464.16
2022-08-29T09:31:34.341Z,101464.78
2022-08-29T09:34:08.137Z,101423.13
2022-08-29T09:36:48.318Z,101453.16
2022-08-29T09:39:17.945Z,101450.38
2022-08-29T09:41:47.829Z,101451.66
2022-08-29T09:44:27.095Z,101421.03
2022-08-29T09:47:20.111Z,101437.94
2022-08-29T09:50:05.438Z,101435.84
2022-08-29T09:52:33.002Z,101415.13
2022-08-29T09:55:18.585Z,101434.75
2022-08-29T09:57:51.024Z,101443.28
2022-08-29T10:00:19.655Z,101433.25
2022-08-29T10:02:48.832Z,101453.66
2022-08-29T10:05:35.486Z,101442.13
2022-08-29T10:08:05.540Z,101436.75
2022-08-29T10:10:36.087Z,101431.47
2022-08-29T10:13:20.333Z,101430.03
2022-08-29T10:16:02.052Z,101424.31
2022-08-29T10:18:28.879Z,101421.16
2022-08-29T10:21:10.760Z,101421.88
2022-08-29T10:23:39.700Z,101419.13
2022-08-29T10:26:20.642Z,101416.59
2022-08-29T10:29:09.203Z,101407.22
2022-08-29T10:31:39.402Z,101414.72
2022-08-29T10:34:21.894Z,101419.31
2022-08-29T10:36:56.237Z,101411.66
2022-08-29T10:39:28.762Z,101417.44
2022-08-29T10:42:21.966Z,101398.47
2022-08-29T10:44:54.621Z,101394.84
2022-08-29T10:47:35.158Z,101399.75
2022-08-29T10:50:45.569Z,101398.06
2022-08-29T10:53:22.709Z,101390.66
2022-08-29T10:56:15.951Z,101388.63
2022-08-29T10:58:56.374Z,101381.72
2022-08-29T11:01:47.386Z,101377.13
2022-08-29T11:04:27.910Z,101372.97
2022-08-29T11:07:04.566Z,101367.94
2022-08-29T11:09:38.843Z,101358.03
2022-08-29T11:12:16.025Z,101377.91
2022-08-29T11:14:53.901Z,101369.06
2022-08-29T11:17:23.194Z,101356.22
2022-08-29T11:20:09.568Z,101358.19
2022-08-29T11:22:50.883Z,101364.63
2022-08-29T11:25:20.225Z,101369.25
2022-08-29T11:27:53.572Z,101355.78
2022-08-29T11:30:24.614Z,101347.06
2022-08-29T11:33:42.650Z,101341.75
2022-08-29T11:36:27.789Z,101349.84
2022-08-29T11:39:21.141Z,101342.63
2022-08-29T11:41:49.861Z,101335.19
2022-08-29T11:44:23.019Z,101348.63
2022-08-29T11:46:56.080Z,101335.63
2022-08-29T11:49:44.448Z,101335.50
2022-08-29T11:52:11.155Z,101334.44
2022-08-29T11:54:39.065Z,101338.59
2022-08-29T11:57:05.563Z,101347.81
2022-08-29T11:59:56.559Z,101346.31
2022-08-29T12:02:32.125Z,101345.75
2022-08-29T12:05:09.355Z,101338.47
2022-08-29T12:07:49.301Z,101343.13
2022-08-29T12:10:23.491Z,101347.72
2022-08-29T12:12:56.619Z,101331.69
2022-08-29T12:15:32.516Z,101334.25
2022-08-29T12:18:03.378Z,101331.94
2022-08-29T12:20:30.434Z,101321.28
2022-08-29T12:23:05.471Z,101327.91
2022-08-29T12:25:44.940Z,101327.47
2022-08-29T12:28:32.788Z,101330.16
2022-08-29T12:31:01.032Z,101323.41
2022-08-29T12:33:46.578Z,101332.69
2022-08-29T12:36:53.014Z,101335.44
2022-08-29T12:39:47.855Z,101324.28
2022-08-29T12:42:46.065Z,101329.03
2022-08-29T12:45:17.854Z,101313.78
2022-08-29T12:47:50.998Z,101318.78
2022-08-29T12:50:36.643Z,101317.59
2022-08-29T12:53:05.876Z,101309.53
2022-08-29T12:55:44.768Z,101310.75
2022-08-29T12:58:13.206Z,101309.31
2022-08-29T13:00:41.923Z,101313.34
2022-08-29T13:03:15.465Z,101307.25
2022-08-29T13:05:43.281Z,101309.81
2022-08-29T13:08:28.977Z,101307.03
2022-08-29T13:10:59.351Z,101299.44
2022-08-29T13:13:26.683Z,101290.38
2022-08-29T13:15:55.522Z,101290.75
2022-08-29T13:18:22.972Z,101294.66
2022-08-29T13:21:23.303Z,101279.47
2022-08-29T13:24:02.878Z,101282.41
2022-08-29T13:26:34.129Z,101292.00
2022-08-29T13:29:03.869Z,101289.88
2022-08-29T13:31:37.830Z,101282.63
2022-08-29T13:34:07.471Z,101293.97
2022-08-29T13:36:39.127Z,101275.59
2022-08-29T13:39:18.015Z,101294.44
2022-08-29T13:41:47.472Z,101280.28
2022-08-29T13:44:19.991Z,101287.78
2022-08-29T13:46:47.762Z,101280.72
2022-08-29T13:49:27.546Z,101282.50
2022-08-29T13:51:54.360Z,101255.53
2022-08-29T13:54:21.765Z,101282.16
2022-08-29T13:56:50.126Z,101275.56
2022-08-29T13:59:19.656Z,101269.16
2022-08-29T14:04:41.666Z,101240.06
2022-08-29T14:07:09.884Z,101269.78
2022-08-29T14:09:40.217Z,101250.31
2022-08-29T14:12:07.580Z,101263.22
2022-08-29T14:14:34.222Z,101245.78
2022-08-29T14:17:01.030Z,101208.63
2022-08-29T14:19:28.725Z,101243.06
2022-08-29T14:21:55.985Z,101249.13
2022-08-29T14:24:22.911Z,101251.94
2022-08-29T14:27:01.598Z,101242.31
2022-08-29T14:29:33.251Z,101253.72
2022-08-29T14:32:02.848Z,101229.81
2022-08-29T14:34:32.711Z,101233.38
2022-08-29T14:37:00.894Z,101235.50
2022-08-29T14:39:27.668Z,101226.94
2022-08-29T14:41:54.668Z,101229.28
2022-08-29T14:44:22.139Z,101228.44
2022-08-29T14:46:49.255Z,101220.38
2022-08-29T14:49:16.061Z,101210.06
2022-08-29T14:51:44.193Z,101232.22
2022-08-29T14:54:11.926Z,101225.88
2022-08-29T14:56:54.498Z,101224.16
2022-08-29T14:59:22.837Z,101226.25
2022-08-29T15:01:54.152Z,101233.34
2022-08-29T15:04:36.684Z,101213.88
2022-08-29T15:07:09.343Z,101198.53
2022-08-29T15:09:37.963Z,101228.56
2022-08-29T15:12:05.377Z,101206.09
2022-08-29T15:14:32.049Z,101229.19
2022-08-29T15:16:58.607Z,101224.63
2022-08-29T15:19:58.136Z,101210.44
2022-08-29T15:22:13.005Z,101212.63
2022-08-29T15:24:39.957Z,101214.06
2022-08-29T15:27:07.288Z,101205.53
2022-08-29T15:29:35.197Z,101193.56
2022-08-29T15:32:01.765Z,101193.97
2022-08-29T15:34:29.080Z,101204.59
2022-08-29T15:36:56.514Z,101195.25
2022-08-29T15:39:25.481Z,101192.72
2022-08-29T15:41:52.054Z,101200.47
2022-08-29T15:44:18.690Z,101198.09
2022-08-29T15:46:50.269Z,101195.47
2022-08-29T15:49:18.121Z,101200.31
2022-08-29T15:51:44.804Z,101199.72
2022-08-29T15:54:12.280Z,101186.69
2022-08-29T15:56:39.084Z,101193.28
2022-08-29T15:59:07.365Z,101187.28
2022-08-29T16:01:41.182Z,101186.28
2022-08-29T16:04:11.114Z,101168.09
2022-08-29T16:06:38.444Z,101173.81
2022-08-29T16:09:11.035Z,101174.44
2022-08-29T16:11:46.993Z,101170.22
2022-08-29T16:17:03.131Z,101168.09
2022-08-29T16:19:29.939Z,101162.69
2022-08-29T16:22:00.094Z,101170.06
2022-08-29T16:24:28.881Z,101169.16
2022-08-29T16:26:55.806Z,101146.88
2022-08-29T16:29:26.821Z,101161.38
2022-08-29T16:31:57.752Z,101165.91
2022-08-29T16:34:29.049Z,101171.75
2022-08-29T16:36:59.278Z,101160.41
2022-08-29T16:39:30.048Z,101160.75
2022-08-29T16:41:56.650Z,101158.56
2022-08-29T16:44:23.780Z,101161.44
2022-08-29T16:46:50.418Z,101170.94
2022-08-29T16:49:17.267Z,101139.53
2022-08-29T16:51:43.924Z,101164.50
2022-08-29T16:54:12.029Z,101117.28
2022-08-29T16:56:39.769Z,101165.06
2022-08-29T16:59:06.739Z,101168.19
2022-08-29T17:01:37.854Z,101171.38
2022-08-29T17:04:08.434Z,101153.13
2022-08-29T17:06:35.263Z,101173.22
2022-08-29T17:09:06.453Z,101172.38
2022-08-29T17:11:36.164Z,101123.03
2022-08-29T17:14:04.097Z,101166.75
2022-08-29T17:16:31.207Z,101169.66
2022-08-29T17:18:57.873Z,101164.88
2022-08-29T17:21:24.472Z,101171.94
2022-08-29T17:23:50.991Z,101172.34
2022-08-29T17:26:18.510Z,101170.31
2022-08-29T17:28:46.305Z,101153.53
2022-08-29T17:31:13.794Z,101146.69
2022-08-29T17:33:41.106Z,101176.78
2022-08-29T17:36:08.673Z,101170.72
2022-08-29T17:38:35.660Z,101165.94
2022-08-29T17:41:05.218Z,101161.09
2022-08-29T17:43:42.977Z,101168.63
2022-08-29T17:46:09.709Z,101175.16
2022-08-29T17:48:36.937Z,101165.50
2022-08-29T17:51:03.739Z,101173.66
2022-08-29T17:53:32.311Z,101178.91
2022-08-29T17:55:59.938Z,101173.66
2022-08-29T17:58:26.459Z,101179.56
2022-08-29T18:00:54.549Z,101175.75
2022-08-29T18:03:21.321Z,101190.81
2022-08-29T18:05:48.068Z,101191.22
2022-08-29T18:08:14.722Z,101189.13
2022-08-29T18:10:41.334Z,101189.34
2022-08-29T18:13:07.916Z,101189.09
2022-08-29T18:15:35.547Z,101182.19
2022-08-29T18:18:02.511Z,101181.47
2022-08-29T18:20:29.622Z,101181.69
2022-08-29T18:22:58.346Z,101187.50
2022-08-29T18:25:25.021Z,101188.66
2022-08-29T18:27:51.598Z,101191.50
2022-08-29T18:30:18.648Z,101196.63
2022-08-29T18:32:45.257Z,101202.66
2022-08-29T18:35:12.033Z,101194.13
2022-08-29T18:37:41.641Z,101191.38
2022-08-29T18:40:09.675Z,101200.59
2022-08-29T18:42:40.874Z,101196.66
2022-08-29T18:45:09.142Z,101206.03
2022-08-29T18:47:37.015Z,101202.38
2022-08-29T18:50:23.172Z,101206.66
2022-08-29T18:52:51.956Z,101198.53
2022-08-29T18:55:18.584Z,101192.06
2022-08-29T18:57:47.121Z,101207.03
2022-08-29T19:00:14.595Z,101207.44
2022-08-29T19:02:41.405Z,101211.34
2022-08-29T19:05:08.580Z,101189.03
2022-08-29T19:07:35.135Z,101202.72
2022-08-29T19:10:01.900Z,101208.72
2022-08-29T19:12:28.539Z,101200.53
2022-08-29T19:14:55.958Z,101194.53
2022-08-29T19:17:22.616Z,101204.75
2022-08-29T19:20:10.456Z,101209.28
2022-08-29T19:22:38.115Z,101221.59
2022-08-29T19:25:06.912Z,101221.34
2022-08-29T19:27:43.274Z,101224.44
2022-08-29T19:30:12.471Z,101222.31
2022-08-29T19:32:39.299Z,101223.28
2022-08-29T19:35:09.341Z,101219.88
2022-08-29T19:37:36.232Z,101221.19
2022-08-29T19:40:04.861Z,101231.09
2022-08-29T19:42:31.558Z,101219.41
2022-08-29T19:44:58.159Z,101237.16
2022-08-29T19:47:25.183Z,101235.47
2022-08-29T19:49:52.362Z,101231.41
2022-08-29T19:52:18.946Z,101226.03
2022-08-29T19:54:46.418Z,101233.13
2022-08-29T19:57:14.708Z,101229.16
2022-08-29T19:59:42.271Z,101217.53
2022-08-29T20:02:11.203Z,101240.00
2022-08-29T20:04:38.305Z,101222.00
2022-08-29T20:07:05.385Z,101232.13
2022-08-29T20:09:31.968Z,101235.72
2022-08-29T20:11:59.043Z,101202.16
2022-08-29T20:14:25.606Z,101239.72
2022-08-29T20:16:52.599Z,101231.59
2022-08-29T20:19:21.274Z,101242.78
2022-08-29T20:21:48.985Z,101246.97
2022-08-29T20:24:17.483Z,101247.22
2022-08-29T20:26:46.660Z,101255.63
2022-08-29T20:29:16.471Z,101244.56
2022-08-29T20:31:44.342Z,101247.97
2022-08-29T20:34:11.014Z,101235.25
2022-08-29T20:36:55.945Z,101237.25
2022-08-29T20:39:22.521Z,101249.47
2022-08-29T20:41:55.476Z,101220.25
2022-08-29T20:44:32.982Z,101244.53
2022-08-29T20:47:00.509Z,101235.03
2022-08-29T20:49:27.125Z,101233.16
2022-08-29T20:51:53.781Z,101243.94
2022-08-29T20:54:23.047Z,101240.16
2022-08-29T20:56:50.177Z,101225.16
2022-08-29T20:59:17.194Z,101253.84
2022-08-29T21:01:44.479Z,101250.44
2022-08-29T21:04:30.660Z,101254.91
2022-08-29T21:07:09.119Z,101242.75
2022-08-29T21:09:36.823Z,101225.59
2022-08-29T21:12:03.635Z,101258.66
2022-08-29T21:14:30.193Z,101238.69
2022-08-29T21:16:57.299Z,101266.53
2022-08-29T21:19:26.344Z,101255.88
2022-08-29T21:21:53.867Z,101262.78
2022-08-29T21:24:21.036Z,101270.75
2022-08-29T21:26:48.006Z,101258.91
2022-08-29T21:29:15.268Z,101268.13
2022-08-29T21:31:42.161Z,101253.69
2022-08-29T21:34:10.525Z,101262.88
2022-08-29T21:36:38.159Z,101264.31
2022-08-29T21:39:08.295Z,101261.16
2022-08-29T21:41:39.780Z,101257.78
2022-08-29T21:44:06.690Z,101257.03
2022-08-29T21:46:35.317Z,101259.25
2022-08-29T21:49:04.726Z,101256.03
2022-08-29T21:51:33.286Z,101271.00
2022-08-29T21:54:00.144Z,101273.78
2022-08-29T21:56:28.758Z,101259.34
2022-08-29T21:58:56.790Z,101280.59
2022-08-29T22:01:27.165Z,101272.41
2022-08-29T22:03:54.509Z,101271.09
2022-08-29T22:06:21.649Z,101270.50
2022-08-29T22:08:48.607Z,101264.66
2022-08-29T22:11:25.062Z,101266.94
2022-08-29T22:14:06.479Z,101265.84
2022-08-29T22:16:33.388Z,101273.31
2022-08-29T22:19:01.735Z,101274.63
2022-08-29T22:21:33.024Z,101264.09
2022-08-29T22:23:59.903Z,101267.19
2022-08-29T22:26:26.735Z,101268.47
2022-08-29T22:28:53.381Z,101264.09
2022-08-29T22:31:20.107Z,101269.38
2022-08-29T22:33:47.274Z,101272.88
2022-08-29T22:36:14.990Z,101278.31
2022-08-29T22:38:43.362Z,101276.91
2022-08-29T22:41:15.190Z,101285.50
2022-08-29T22:43:45.088Z,101281.75
2022-08-29T22:46:17.065Z,101274.19
2022-08-29T22:48:44.470Z,101285.75
2022-08-29T22:51:31.357Z,101291.88
2022-08-29T22:54:16.723Z,101281.31
2022-08-29T22:56:44.992Z,101291.03
2022-08-29T22:59:12.885Z,101285.53
2022-08-29T23:01:41.681Z,101287.31
2022-08-29T23:04:08.767Z,101279.38
2022-08-29T23:06:35.957Z,101283.69
2022-08-29T23:09:02.723Z,101286.19
2022-08-29T23:11:29.263Z,101289.00
2022-08-29T23:13:56.111Z,101286.66
2022-08-29T23:16:23.787Z,101288.53
2022-08-29T23:18:51.045Z,101287.38
2022-08-29T23:21:18.274Z,101293.03
2022-08-29T23:23:45.401Z,101287.22
2022-08-29T23:26:12.201Z,101286.13
2022-08-29T23:28:38.824Z,101282.50
2022-08-29T23:31:05.474Z,101245.72
2022-08-29T23:33:32.238Z,101261.44
2022-08-29T23:35:58.804Z,101286.97
2022-08-29T23:38:25.463Z,101284.13
2022-08-29T23:40:52.475Z,101283.22
2022-08-29T23:43:21.028Z,101286.94
2022-08-29T23:45:49.842Z,101267.41
2022-08-29T23:48:16.820Z,101283.13
2022-08-29T23:50:45.163Z,101273.13
2022-08-29T23:53:15.910Z,101286.97
2022-08-29T23:55:42.794Z,101283.25
2022-08-29T23:58:09.649Z,101288.16
